Time;durP1;ratioP1;P1;durP2;ratioP2;P2;SDS_P1;SDS_P2;PMS_P1;PMS_P2;Temp;Humidity;BMP_temperature;BMP_pressure;BME280_temperature;BME280_humidity;BME280_pressure;Samples;Min_cycle;Max_cycle;Signal;HPM_P1;HPM_P2
2021/03/21 00:01:40;;;;;;;1999.90;999.90;;;6.60;99.90;;;;;;4991782;28;20475;-70
2021/03/21 00:04:07;;;;;;;1999.90;999.90;;;6.60;99.90;;;;;;4986138;28;20058;-70
2021/03/21 00:06:33;;;;;;;1999.90;999.90;;;6.60;99.90;;;;;;5007124;28;20137;-71
2021/03/21 00:08:59;;;;;;;1999.90;999.90;;;6.60;99.80;;;;;;5005400;28;20069;-70
2021/03/21 00:11:26;;;;;;;1999.90;999.90;;;6.60;99.90;;;;;;5012411;28;20140;-71
2021/03/21 00:13:52;;;;;;;1999.90;999.90;;;6.50;99.90;;;;;;5003040;28;20177;-71
2021/03/21 00:16:18;;;;;;;1999.90;999.90;;;6.50;99.90;;;;;;4989364;28;20413;-71
2021/03/21 00:18:46;;;;;;;1999.90;999.90;;;6.50;99.90;;;;;;5012638;28;20517;-71
2021/03/21 00:21:14;;;;;;;1999.90;999.90;;;6.50;99.90;;;;;;4990080;28;20069;-70
2021/03/21 00:23:41;;;;;;;1999.90;999.90;;;6.50;99.80;;;;;;4994702;28;20046;-70
2021/03/21 00:26:08;;;;;;;1999.90;999.90;;;6.50;99.80;;;;;;4983313;28;20146;-70
2021/03/21 00:28:36;;;;;;;1999.90;999.90;;;6.50;99.60;;;;;;5008697;28;20041;-71
2021/03/21 00:31:03;;;;;;;1999.90;999.90;;;6.60;99.80;;;;;;5004637;28;20042;-70
2021/03/21 00:33:33;;;;;;;1999.90;999.90;;;6.60;99.70;;;;;;5092878;27;20515;-71
2021/03/21 00:36:00;;;;;;;1999.90;999.90;;;6.60;99.70;;;;;;5010209;28;20078;-70
2021/03/21 00:38:41;;;;;;;1999.90;999.90;;;6.60;99.90;;;;;;5015520;28;20099;-70
2021/03/21 00:52:53;;;;;;;1999.90;999.90;;;6.50;99.90;;;;;;5012957;28;20043;-70
2021/03/21 00:59:38;;;;;;;1999.90;999.90;;;6.50;99.90;;;;;;5008179;28;20028;-70
2021/03/21 01:02:05;;;;;;;1999.90;999.90;;;6.50;99.90;;;;;;4992997;28;20052;-70
2021/03/21 01:04:31;;;;;;;1999.90;999.90;;;6.50;99.90;;;;;;4999344;28;20066;-70
2021/03/21 01:06:57;;;;;;;1999.90;999.90;;;6.40;99.90;;;;;;5005078;28;20129;-70
2021/03/21 01:09:24;;;;;;;1999.90;999.90;;;6.40;99.90;;;;;;5007223;28;20649;-70
2021/03/21 01:11:50;;;;;;;1999.90;999.90;;;6.40;99.90;;;;;;5087086;28;20046;-71
2021/03/21 01:14:18;;;;;;;1999.90;999.90;;;6.40;99.90;;;;;;5009649;28;20500;-70
2021/03/21 01:16:45;;;;;;;1999.90;999.90;;;6.40;99.90;;;;;;5018868;28;20041;-70
2021/03/21 01:19:18;;;;;;;1999.90;999.90;;;6.40;99.90;;;;;;5008874;28;20050;-70
2021/03/21 01:21:45;;;;;;;1999.90;999.90;;;6.40;99.90;;;;;;4993028;28;20056;-71
2021/03/21 01:24:23;;;;;;;1999.90;999.90;;;6.40;99.90;;;;;;5007789;28;20046;-70
2021/03/21 01:26:50;;;;;;;1999.90;999.90;;;6.40;99.90;;;;;;5009325;28;20045;-70
2021/03/21 01:29:16;;;;;;;1999.90;999.90;;;6.40;99.90;;;;;;5017107;28;20133;-70
2021/03/21 01:31:43;;;;;;;1999.90;999.90;;;6.40;99.90;;;;;;5011007;28;20060;-70
2021/03/21 01:34:11;;;;;;;1999.90;999.90;;;6.40;99.90;;;;;;5017389;28;20055;-71
2021/03/21 01:36:39;;;;;;;1999.90;999.90;;;6.40;99.90;;;;;;5014463;28;20141;-70
2021/03/21 01:39:26;;;;;;;1999.90;999.90;;;6.40;99.90;;;;;;5008043;28;20058;-70
2021/03/21 01:42:07;;;;;;;1999.90;999.90;;;6.30;99.90;;;;;;5013442;28;20492;-71
2021/03/21 01:44:33;;;;;;;1999.90;999.90;;;6.40;99.90;;;;;;5009851;28;20397;-70
2021/03/21 01:47:14;;;;;;;1999.90;999.90;;;6.30;99.90;;;;;;5038536;28;20537;-70
2021/03/21 01:49:45;;;;;;;1999.90;999.90;;;6.30;99.90;;;;;;5007387;28;20128;-71
2021/03/21 01:52:30;;;;;;;1999.90;999.90;;;6.30;99.90;;;;;;5011232;28;20469;-70
2021/03/21 01:55:00;;;;;;;1999.90;999.90;;;6.30;99.90;;;;;;4989520;28;20046;-70
2021/03/21 01:57:27;;;;;;;1999.90;999.90;;;6.30;99.90;;;;;;4983409;28;20073;-70
2021/03/21 01:59:55;;;;;;;1999.90;999.90;;;6.40;99.90;;;;;;4989573;28;20054;-70
2021/03/21 02:02:21;;;;;;;1999.90;999.90;;;6.30;99.90;;;;;;5006147;28;20060;-71
2021/03/21 02:04:48;;;;;;;1999.90;999.90;;;6.30;99.90;;;;;;5006070;28;20405;-70
2021/03/21 02:07:26;;;;;;;1999.90;999.90;;;6.40;99.90;;;;;;5004867;28;20038;-70
2021/03/21 02:10:01;;;;;;;1999.90;999.90;;;6.40;99.90;;;;;;5004968;28;20049;-70
2021/03/21 02:12:45;;;;;;;1999.90;999.90;;;6.40;99.90;;;;;;5013936;28;20050;-70
2021/03/21 02:15:16;;;;;;;1999.90;999.90;;;6.40;99.90;;;;;;5013312;28;20054;-70
2021/03/21 02:18:09;;;;;;;1999.90;999.90;;;6.40;99.90;;;;;;4991484;28;20046;-70
2021/03/21 02:20:53;;;;;;;1999.90;999.90;;;6.40;99.90;;;;;;5015338;28;20158;-70
2021/03/21 02:23:52;;;;;;;1999.90;999.90;;;6.30;99.90;;;;;;5001358;28;20045;-70
2021/03/21 02:26:41;;;;;;;1999.90;999.90;;;6.30;99.90;;;;;;5062550;27;20420;-70
2021/03/21 02:29:28;;;;;;;1999.90;999.90;;;6.30;99.90;;;;;;5007195;28;20505;-71
2021/03/21 02:32:20;;;;;;;1999.90;999.90;;;6.30;99.90;;;;;;5084800;27;20545;-70
2021/03/21 02:34:53;;;;;;;1999.90;999.90;;;6.30;99.90;;;;;;4993151;28;20045;-70
2021/03/21 02:37:48;;;;;;;1999.90;999.90;;;6.30;99.90;;;;;;4996682;28;20073;-70
2021/03/21 02:40:33;;;;;;;1999.90;999.90;;;6.30;99.90;;;;;;5006568;28;20050;-70
2021/03/21 02:43:18;;;;;;;1999.90;999.90;;;6.30;99.90;;;;;;5012832;28;20044;-71
2021/03/21 02:45:49;;;;;;;1999.90;999.90;;;6.30;99.90;;;;;;5010797;28;20156;-70
2021/03/21 02:48:22;;;;;;;1999.90;999.90;;;6.30;99.90;;;;;;5087711;27;20054;-70
2021/03/21 02:51:01;;;;;;;1999.90;999.90;;;6.30;99.90;;;;;;4992834;28;20453;-70
2021/03/21 02:53:40;;;;;;;1999.90;999.90;;;6.30;99.90;;;;;;5009550;28;20090;-70
2021/03/21 02:56:10;;;;;;;1999.90;999.90;;;6.30;99.90;;;;;;5013280;28;20488;-70
2021/03/21 02:58:52;;;;;;;1999.90;999.90;;;6.30;99.90;;;;;;5005189;28;20393;-70
2021/03/21 03:01:30;;;;;;;1999.90;999.90;;;6.40;99.90;;;;;;5004780;28;20058;-70
2021/03/21 03:04:08;;;;;;;1999.90;999.90;;;6.40;99.90;;;;;;5091929;27;20385;-70
2021/03/21 03:06:43;;;;;;;1999.90;999.90;;;6.40;99.90;;;;;;5000013;28;20049;-70
2021/03/21 03:09:25;;;;;;;1999.90;999.90;;;6.40;99.90;;;;;;5008018;28;20064;-70
2021/03/21 03:11:56;;;;;;;1999.90;999.90;;;6.40;99.90;;;;;;5014600;28;20042;-70
2021/03/21 03:14:31;;;;;;;1999.90;999.90;;;6.40;99.90;;;;;;4997150;28;20423;-70
2021/03/21 03:17:25;;;;;;;1999.90;999.90;;;6.50;99.90;;;;;;5006736;28;20140;-70
2021/03/21 03:19:55;;;;;;;1999.90;999.90;;;6.50;99.90;;;;;;4999028;28;20046;-70
2021/03/21 03:22:32;;;;;;;1999.90;999.90;;;6.40;99.90;;;;;;5001993;28;20057;-70
2021/03/21 03:25:21;;;;;;;1999.90;999.90;;;6.40;99.90;;;;;;5006249;28;20042;-70
2021/03/21 03:28:06;;;;;;;1999.90;999.90;;;6.40;99.90;;;;;;5015363;28;20619;-70
2021/03/21 03:30:48;;;;;;;1999.90;999.90;;;6.50;99.90;;;;;;4997002;28;20096;-70
2021/03/21 03:33:14;;;;;;;1999.90;999.90;;;6.40;99.90;;;;;;4989289;28;20141;-71
2021/03/21 03:35:41;;;;;;;1999.90;999.90;;;6.40;99.90;;;;;;5007799;28;20065;-70
2021/03/21 03:38:10;;;;;;;1999.90;999.90;;;6.40;99.90;;;;;;5002274;28;20085;-68
2021/03/21 03:40:40;;;;;;;1999.90;999.90;;;6.40;99.90;;;;;;4989348;28;20052;-70
2021/03/21 03:43:27;;;;;;;1999.90;999.90;;;6.50;99.90;;;;;;5002999;28;20113;-70
2021/03/21 03:46:18;;;;;;;1999.90;999.90;;;6.50;99.90;;;;;;5003285;28;20042;-70
2021/03/21 03:49:08;;;;;;;1999.90;999.90;;;6.50;99.90;;;;;;4985926;28;20042;-70
2021/03/21 03:51:50;;;;;;;1999.90;999.90;;;6.50;99.90;;;;;;5083303;27;20046;-70
2021/03/21 03:54:40;;;;;;;1999.90;999.90;;;6.50;99.90;;;;;;5007018;28;20073;-70
2021/03/21 03:57:15;;;;;;;1999.90;999.90;;;6.50;99.90;;;;;;4996794;28;20690;-70
2021/03/21 04:00:15;;;;;;;1999.90;999.90;;;6.50;99.90;;;;;;5008996;28;20052;-71
2021/03/21 04:03:04;;;;;;;1999.90;999.90;;;6.60;99.90;;;;;;5009767;28;20056;-70
2021/03/21 04:05:47;;;;;;;1999.90;999.90;;;6.60;99.90;;;;;;5004896;28;20110;-70
2021/03/21 04:08:32;;;;;;;1999.90;999.90;;;6.60;99.90;;;;;;4990955;28;20072;-70
2021/03/21 04:11:11;;;;;;;1999.90;999.90;;;6.60;99.90;;;;;;5014640;28;20701;-70
2021/03/21 04:13:41;;;;;;;1999.90;999.90;;;6.70;99.90;;;;;;5005352;28;20056;-70
2021/03/21 04:16:11;;;;;;;1999.90;999.90;;;6.70;99.90;;;;;;4998280;28;20098;-70
2021/03/21 04:18:47;;;;;;;1999.90;999.90;;;6.70;99.90;;;;;;5008535;28;20058;-70
2021/03/21 04:21:31;;;;;;;1999.90;999.90;;;6.70;99.90;;;;;;4994253;28;20042;-70
2021/03/21 04:24:06;;;;;;;1999.90;999.90;;;6.70;99.90;;;;;;4996339;28;20078;-70
2021/03/21 04:26:54;;;;;;;1999.90;999.90;;;6.70;99.90;;;;;;4999341;28;20060;-71
2021/03/21 04:29:34;;;;;;;1999.90;999.90;;;6.80;99.90;;;;;;5004762;28;20080;-70
2021/03/21 04:32:14;;;;;;;1999.90;999.90;;;6.80;99.90;;;;;;5006458;28;20052;-70
2021/03/21 04:34:45;;;;;;;1999.90;999.90;;;6.80;99.90;;;;;;5010587;28;20057;-70
2021/03/21 04:37:12;;;;;;;1999.90;999.90;;;6.80;99.90;;;;;;4990888;28;20054;-70
2021/03/21 04:39:41;;;;;;;1999.90;999.90;;;6.80;99.90;;;;;;5001413;28;20061;-70
2021/03/21 04:42:11;;;;;;;;;;;6.80;99.90;;;;;;5019572;28;20137;-70
2021/03/21 04:44:48;;;;;;;1999.90;999.90;;;6.80;99.90;;;;;;4993669;28;19922;-70
2021/03/21 04:47:25;;;;;;;1999.90;999.90;;;6.80;99.90;;;;;;4999803;28;21059;-70
2021/03/21 04:49:57;;;;;;;1999.90;999.90;;;6.80;99.90;;;;;;5007782;28;20050;-70
2021/03/21 04:52:45;;;;;;;1999.90;999.90;;;6.80;99.90;;;;;;5003188;28;20072;-70
2021/03/21 04:55:18;;;;;;;1999.90;999.90;;;6.80;99.90;;;;;;4999051;28;20053;-70
2021/03/21 04:57:54;;;;;;;1999.90;999.90;;;6.80;99.90;;;;;;5001644;28;20057;-70
2021/03/21 05:00:38;;;;;;;1999.90;999.90;;;6.80;99.90;;;;;;5004083;28;20422;-70
2021/03/21 05:03:33;;;;;;;1999.90;999.90;;;6.80;99.90;;;;;;4983880;28;20057;-70
2021/03/21 05:06:07;;;;;;;1999.90;999.90;;;6.90;99.90;;;;;;4999914;28;20133;-70
2021/03/21 05:08:51;;;;;;;1999.90;999.90;;;6.90;99.90;;;;;;5018066;28;20050;-70
2021/03/21 05:11:18;;;;;;;1999.90;999.90;;;6.90;99.90;;;;;;4984551;28;20454;-70
2021/03/21 05:14:01;;;;;;;1999.90;999.90;;;6.90;99.90;;;;;;4999572;28;20056;-71
2021/03/21 05:16:36;;;;;;;1999.90;999.90;;;6.90;99.90;;;;;;4983774;28;20074;-70
2021/03/21 05:19:31;;;;;;;1999.90;999.90;;;6.90;99.90;;;;;;5029177;28;20549;-71
2021/03/21 05:22:05;;;;;;;1999.90;999.90;;;6.90;99.90;;;;;;5007322;28;20497;-70
2021/03/21 05:24:39;;;;;;;1999.90;999.90;;;6.90;99.90;;;;;;5002492;28;20045;-71
2021/03/21 05:27:24;;;;;;;1999.90;999.90;;;6.90;99.90;;;;;;4995040;28;20157;-70
2021/03/21 05:30:10;;;;;;;1999.90;999.90;;;6.90;99.90;;;;;;5015013;28;20054;-70
2021/03/21 05:32:37;;;;;;;1999.90;999.90;;;6.90;99.90;;;;;;4997647;28;20474;-71
2021/03/21 05:35:06;;;;;;;1999.90;999.90;;;6.90;99.90;;;;;;5002702;28;20084;-71
2021/03/21 05:37:52;;;;;;;1999.90;999.90;;;6.90;99.90;;;;;;5011130;28;20046;-70
2021/03/21 05:40:52;;;;;;;1999.90;999.90;;;6.90;99.90;;;;;;5003511;28;20138;-70
2021/03/21 05:43:40;;;;;;;1999.90;999.90;;;6.90;99.90;;;;;;4982148;28;20049;-70
2021/03/21 05:46:26;;;;;;;1999.90;999.90;;;6.90;99.90;;;;;;5001949;28;20049;-70
2021/03/21 05:49:30;;;;;;;1999.90;999.90;;;6.80;99.90;;;;;;4987622;28;20388;-70
2021/03/21 05:52:20;;;;;;;1999.90;999.90;;;6.80;99.90;;;;;;4987124;28;20099;-70
2021/03/21 05:54:58;;;;;;;1999.90;999.90;;;6.80;99.90;;;;;;5084509;27;20053;-70
2021/03/21 05:58:02;;;;;;;1999.90;999.90;;;6.90;99.90;;;;;;5006547;28;20054;-70
2021/03/21 06:01:07;;;;;;;1999.90;999.90;;;6.80;99.90;;;;;;5008546;28;20477;-70
2021/03/21 06:03:55;;;;;;;1999.90;999.90;;;6.90;99.90;;;;;;4990059;28;20042;-70
2021/03/21 06:06:56;;;;;;;1999.90;999.90;;;6.90;99.90;;;;;;5003866;28;20046;-70
2021/03/21 06:09:22;;;;;;;1999.90;999.90;;;6.80;99.90;;;;;;5008371;28;20550;-71
2021/03/21 06:11:55;;;;;;;1999.90;999.90;;;6.90;99.90;;;;;;4992031;28;20046;-70
2021/03/21 06:14:43;;;;;;;1999.90;999.90;;;6.90;99.90;;;;;;5080144;27;20056;-71
2021/03/21 06:17:30;;;;;;;1999.90;999.90;;;6.90;99.90;;;;;;5013202;28;20076;-71
2021/03/21 06:20:29;;;;;;;1999.90;999.90;;;6.90;99.90;;;;;;5011127;28;20473;-70
2021/03/21 06:23:36;;;;;;;1999.90;999.90;;;6.90;99.90;;;;;;5005807;28;20497;-70
2021/03/21 06:26:40;;;;;;;1999.90;999.90;;;6.90;99.90;;;;;;5009054;28;20046;-70
2021/03/21 06:29:38;;;;;;;1999.90;999.90;;;6.90;99.90;;;;;;5015327;28;20104;-70
2021/03/21 06:32:20;;;;;;;1999.90;999.90;;;7.00;99.90;;;;;;5003102;28;20053;-71
2021/03/21 06:35:20;;;;;;;1999.90;999.90;;;7.00;99.90;;;;;;4993451;28;20050;-70
2021/03/21 06:38:04;;;;;;;1999.90;999.90;;;7.00;99.90;;;;;;5004082;28;20450;-70
2021/03/21 06:40:42;;;;;;;1999.90;999.90;;;7.00;99.90;;;;;;5084196;27;20056;-71
2021/03/21 06:43:46;;;;;;;1999.90;999.90;;;7.00;99.90;;;;;;5086458;27;20876;-71
2021/03/21 06:46:24;;;;;;;1999.90;999.90;;;7.00;99.90;;;;;;4994608;28;20053;-70
2021/03/21 06:49:29;;;;;;;1999.90;999.90;;;7.00;99.90;;;;;;4998549;28;20216;-70
2021/03/21 06:52:13;;;;;;;1999.90;999.90;;;7.10;99.90;;;;;;4993636;28;20068;-70
2021/03/21 06:54:58;;;;;;;1999.90;999.90;;;7.10;99.90;;;;;;5076494;28;20122;-71
2021/03/21 06:58:01;;;;;;;1999.90;999.90;;;7.10;99.90;;;;;;4994523;28;20129;-70
2021/03/21 07:00:53;;;;;;;1999.90;999.90;;;7.10;99.90;;;;;;5004258;28;20460;-70
2021/03/21 07:03:39;;;;;;;1999.90;999.90;;;7.20;99.90;;;;;;4996949;28;20050;-70
2021/03/21 07:06:18;;;;;;;1999.90;999.90;;;7.20;99.90;;;;;;5000930;28;20046;-70
2021/03/21 07:09:03;;;;;;;1999.90;999.90;;;7.20;99.90;;;;;;5004962;28;20376;-70
2021/03/21 07:11:44;;;;;;;1999.90;999.90;;;7.30;99.90;;;;;;5002439;28;20042;-70
2021/03/21 07:14:44;;;;;;;1999.90;999.90;;;7.30;99.90;;;;;;5001272;28;20146;-70
2021/03/21 07:17:47;;;;;;;1999.90;999.90;;;7.30;99.90;;;;;;5082518;27;20415;-70
2021/03/21 07:20:32;;;;;;;1999.90;999.90;;;7.30;99.90;;;;;;5001366;28;20111;-70
2021/03/21 07:23:21;;;;;;;1999.90;999.90;;;7.40;99.90;;;;;;4985916;28;20096;-70
2021/03/21 07:26:16;;;;;;;1999.90;999.90;;;7.40;99.90;;;;;;4964131;28;20068;-70
2021/03/21 07:29:12;;;;;;;1999.90;999.90;;;7.40;99.90;;;;;;4981864;28;20409;-70
2021/03/21 07:32:21;;;;;;;1999.90;999.90;;;7.40;99.90;;;;;;4996870;28;20050;-70
2021/03/21 07:35:07;;;;;;;1999.90;999.90;;;7.50;99.90;;;;;;5000459;28;20362;-70
2021/03/21 07:38:02;;;;;;;1999.90;999.90;;;7.50;99.90;;;;;;4988501;28;20191;-70
2021/03/21 07:40:51;;;;;;;1999.90;999.90;;;7.50;99.90;;;;;;5003827;28;20065;-70
2021/03/21 07:43:32;;;;;;;1999.90;999.90;;;7.60;99.90;;;;;;5010189;28;20042;-70
2021/03/21 07:46:19;;;;;;;1999.90;999.90;;;7.60;99.90;;;;;;4988475;28;20125;-70
2021/03/21 07:49:20;;;;;;;1999.90;999.90;;;7.70;99.90;;;;;;5000946;28;20369;-70
2021/03/21 07:52:04;;;;;;;1999.90;999.90;;;7.70;99.90;;;;;;4988450;28;20050;-70
2021/03/21 07:54:40;;;;;;;1999.90;999.90;;;7.80;99.90;;;;;;5028308;28;20043;-70
2021/03/21 07:57:18;;;;;;;1999.90;999.90;;;7.80;99.90;;;;;;4997594;28;20081;-72
2021/03/21 07:59:46;;;;;;;1999.90;999.90;;;7.80;99.90;;;;;;5002932;28;20090;-70
2021/03/21 08:02:17;;;;;;;1999.90;999.90;;;7.80;99.90;;;;;;5002718;28;20442;-70
2021/03/21 08:04:48;;;;;;;1999.90;999.90;;;7.80;99.90;;;;;;4999974;28;20046;-70
2021/03/21 08:07:14;;;;;;;1999.90;999.90;;;7.80;99.90;;;;;;5082336;28;20393;-70
2021/03/21 08:09:42;;;;;;;1999.90;999.90;;;7.90;99.90;;;;;;5006197;28;20049;-70
2021/03/21 08:12:26;;;;;;;1999.90;999.90;;;7.90;99.90;;;;;;4999321;28;20043;-70
2021/03/21 08:14:52;;;;;;;1999.90;999.90;;;8.00;99.90;;;;;;4997142;28;20401;-70
2021/03/21 08:17:23;;;;;;;1999.90;999.90;;;8.00;99.90;;;;;;4986237;28;20050;-70
2021/03/21 08:19:58;;;;;;;1999.90;999.90;;;8.00;99.90;;;;;;4981824;28;20058;-71
2021/03/21 08:22:28;;;;;;;1999.90;999.90;;;8.10;99.90;;;;;;5001218;28;20057;-70
2021/03/21 08:24:58;;;;;;;1999.90;999.90;;;8.10;99.90;;;;;;5000357;28;20404;-70
2021/03/21 08:27:28;;;;;;;1999.90;999.90;;;8.10;99.90;;;;;;4999216;28;20077;-71
2021/03/21 08:30:02;;;;;;;1999.90;999.90;;;8.10;99.90;;;;;;4982045;28;20065;-70
2021/03/21 08:32:31;;;;;;;1999.90;999.90;;;8.10;99.90;;;;;;4987179;28;20042;-70
2021/03/21 08:35:17;;;;;;;1999.90;999.90;;;8.10;99.90;;;;;;5013050;28;20136;-70
2021/03/21 08:37:46;;;;;;;1999.90;999.90;;;8.00;99.90;;;;;;5000543;28;20165;-70
2021/03/21 08:40:22;;;;;;;1999.90;999.90;;;8.00;99.90;;;;;;5003634;28;20051;-70
2021/03/21 08:43:10;;;;;;;1999.90;999.90;;;8.00;99.90;;;;;;4986113;28;20552;-70
2021/03/21 08:45:43;;;;;;;1999.90;999.90;;;8.00;99.90;;;;;;4987270;28;20159;-70
2021/03/21 08:48:13;;;;;;;1999.90;999.90;;;8.00;99.90;;;;;;4999314;28;20184;-71
2021/03/21 08:50:56;;;;;;;1999.90;999.90;;;8.10;99.90;;;;;;5072586;28;20130;-70
2021/03/21 08:53:39;;;;;;;1999.90;999.90;;;8.10;99.90;;;;;;5005577;28;20046;-70
2021/03/21 08:56:16;;;;;;;1999.90;999.90;;;8.10;99.90;;;;;;4990459;28;20081;-71
2021/03/21 08:58:48;;;;;;;1999.90;999.90;;;8.10;99.90;;;;;;5006827;28;20137;-70
2021/03/21 09:01:24;;;;;;;1999.90;999.90;;;8.20;99.90;;;;;;5007841;28;20138;-70
2021/03/21 09:04:07;;;;;;;1999.90;999.90;;;8.20;99.90;;;;;;5004756;28;20046;-70
2021/03/21 09:06:45;;;;;;;1999.90;999.90;;;8.30;99.90;;;;;;5005235;28;20042;-71
2021/03/21 09:09:25;;;;;;;1999.90;999.90;;;8.30;99.90;;;;;;5007071;28;20381;-71
2021/03/21 09:11:55;;;;;;;1999.90;999.90;;;8.30;99.90;;;;;;5014800;28;20045;-71
2021/03/21 09:14:26;;;;;;;1999.90;999.90;;;8.30;99.90;;;;;;4990333;28;20042;-70
2021/03/21 09:17:04;;;;;;;1999.90;999.90;;;8.30;99.90;;;;;;4987458;28;20432;-70
2021/03/21 09:19:33;;;;;;;1999.90;999.90;;;8.30;99.90;;;;;;4982388;28;20042;-70
2021/03/21 09:22:04;;;;;;;1999.90;999.90;;;8.30;99.90;;;;;;5085169;27;20137;-70
2021/03/21 09:24:33;;;;;;;1999.90;999.90;;;8.40;99.90;;;;;;4987203;28;20100;-70
2021/03/21 09:27:36;;;;;;;1999.90;999.90;;;8.40;99.90;;;;;;5004860;28;20538;-70
2021/03/21 09:30:23;;;;;;;1999.90;999.90;;;8.40;99.90;;;;;;5003202;28;20124;-71
2021/03/21 09:32:56;;;;;;;1999.90;999.90;;;8.50;99.90;;;;;;5007632;28;20532;-70
2021/03/21 09:35:31;;;;;;;1999.90;999.90;;;8.70;99.90;;;;;;4995038;28;20104;-70
2021/03/21 09:38:03;;;;;;;1999.90;999.90;;;8.80;99.90;;;;;;5002770;28;20052;-70
2021/03/21 09:40:37;;;;;;;1999.90;999.90;;;8.90;99.90;;;;;;5001494;28;20038;-71
2021/03/21 09:43:09;;;;;;;1999.90;999.90;;;9.00;99.90;;;;;;4998953;28;20050;-70
2021/03/21 09:45:35;;;;;;;1999.90;999.90;;;9.20;99.90;;;;;;5007013;28;20692;-71
2021/03/21 09:48:04;;;;;;;1999.90;999.90;;;9.40;99.90;;;;;;5002989;28;20400;-71
2021/03/21 09:50:37;;;;;;;;;;;9.50;99.90;;;;;;5005506;28;20068;-71
2021/03/21 09:53:30;;;;;;;1999.90;999.90;;;9.60;99.90;;;;;;5003055;28;21392;-70
2021/03/21 09:56:01;;;;;;;1999.90;999.90;;;9.80;99.90;;;;;;5003666;28;20049;-71
2021/03/21 09:58:30;;;;;;;1999.90;999.90;;;9.90;99.90;;;;;;5003829;28;20076;-70
2021/03/21 10:01:03;;;;;;;;;;;10.00;99.90;;;;;;5009076;28;20070;-70
2021/03/21 10:03:34;;;;;;;1999.90;999.90;;;10.10;99.90;;;;;;5011703;28;20028;-71
2021/03/21 10:06:16;;;;;;;1999.90;999.90;;;10.10;99.90;;;;;;5002054;28;20099;-70
2021/03/21 10:08:58;;;;;;;1999.90;999.90;;;10.00;99.90;;;;;;5000720;28;20397;-71
2021/03/21 10:11:39;;;;;;;1999.90;999.90;;;9.90;99.90;;;;;;4998402;28;20050;-71
2021/03/21 10:14:24;;;;;;;1999.90;999.90;;;9.80;99.90;;;;;;5000444;28;20077;-70
2021/03/21 10:16:55;;;;;;;1999.90;999.90;;;9.70;99.90;;;;;;4998841;28;20053;-70
2021/03/21 10:19:55;;;;;;;1999.90;999.90;;;9.70;99.90;;;;;;5001148;28;20148;-71
2021/03/21 10:22:21;;;;;;;1999.90;999.90;;;9.70;99.90;;;;;;5010379;28;20139;-72
2021/03/21 10:24:50;;;;;;;1999.90;999.90;;;9.70;99.90;;;;;;5001469;28;20072;-71
2021/03/21 10:27:22;;;;;;;1999.90;999.90;;;9.70;99.90;;;;;;4999310;28;20133;-71
2021/03/21 10:30:11;;;;;;;1999.90;999.90;;;9.70;99.90;;;;;;5002509;28;20038;-70
2021/03/21 10:32:50;;;;;;;1999.90;999.90;;;9.60;99.90;;;;;;5002301;28;20069;-70
2021/03/21 10:35:23;;;;;;;1999.90;999.90;;;9.50;99.90;;;;;;4999153;28;20058;-70
2021/03/21 10:38:12;;;;;;;1999.90;999.90;;;9.50;99.90;;;;;;4999822;28;20497;-71
2021/03/21 10:40:42;;;;;;;1999.90;999.90;;;9.60;99.90;;;;;;4999393;28;20060;-70
2021/03/21 10:43:17;;;;;;;1999.90;999.90;;;9.80;99.90;;;;;;5007617;28;20141;-71
2021/03/21 10:45:44;;;;;;;1999.90;999.90;;;9.80;99.90;;;;;;5006383;28;20140;-70
2021/03/21 10:48:19;;;;;;;1999.90;999.90;;;9.70;99.90;;;;;;5006756;28;20087;-71
2021/03/21 10:50:46;;;;;;;1999.90;999.90;;;9.70;99.90;;;;;;5073708;28;20081;-70
2021/03/21 10:53:18;;;;;;;1999.90;999.90;;;9.70;99.90;;;;;;5003890;28;20404;-70
2021/03/21 10:56:04;;;;;;;1999.90;999.90;;;9.80;99.90;;;;;;5000598;28;20417;-70
2021/03/21 10:58:46;;;;;;;1999.90;999.90;;;9.90;99.90;;;;;;5000488;28;20080;-71
2021/03/21 11:12:32;;;;;;;1999.90;999.90;;;9.90;99.90;;;;;;5000907;28;20033;-70
2021/03/21 11:15:14;;;;;;;1999.90;999.90;;;9.80;99.90;;;;;;5006400;28;20450;-70
2021/03/21 11:17:42;;;;;;;1999.90;999.90;;;9.70;99.90;;;;;;5000348;28;20376;-70
2021/03/21 11:20:37;;;;;;;1999.90;999.90;;;9.70;99.90;;;;;;4979716;28;20129;-71
2021/03/21 11:23:17;;;;;;;1999.90;999.90;;;9.70;99.90;;;;;;4995797;28;20485;-71
2021/03/21 11:25:43;;;;;;;1999.90;999.90;;;9.70;99.90;;;;;;5001175;28;20094;-70
2021/03/21 11:28:23;;;;;;;1999.90;999.90;;;9.70;99.90;;;;;;5004735;28;20046;-70
2021/03/21 11:30:55;;;;;;;1999.90;999.90;;;9.80;99.90;;;;;;5079869;27;20164;-70
2021/03/21 11:33:34;;;;;;;1999.90;999.90;;;9.90;99.90;;;;;;5007589;28;20536;-70
2021/03/21 11:36:16;;;;;;;1999.90;999.90;;;10.00;99.90;;;;;;5003335;28;20382;-70
2021/03/21 11:38:42;;;;;;;1999.90;999.90;;;10.00;99.90;;;;;;4999901;28;20052;-71
2021/03/21 11:41:23;;;;;;;1999.90;999.90;;;9.90;99.90;;;;;;4985199;28;20165;-70
2021/03/21 11:43:50;;;;;;;1999.90;999.90;;;10.00;99.90;;;;;;4985593;28;20046;-71
2021/03/21 11:46:30;;;;;;;1999.90;999.90;;;10.00;99.90;;;;;;4996215;28;20060;-71
2021/03/21 11:48:58;;;;;;;1999.90;999.90;;;10.00;99.90;;;;;;5000234;28;20054;-70
2021/03/21 11:51:26;;;;;;;1999.90;999.90;;;10.10;99.90;;;;;;5075618;27;20068;-71
2021/03/21 11:53:53;;;;;;;1999.90;999.90;;;10.10;99.90;;;;;;4998266;28;20054;-70
2021/03/21 11:56:29;;;;;;;1999.90;999.90;;;10.00;99.90;;;;;;5003024;28;20062;-70
2021/03/21 11:58:58;;;;;;;1999.90;999.90;;;10.00;99.90;;;;;;4983896;28;20049;-70
2021/03/21 12:01:41;;;;;;;1999.90;999.90;;;10.00;99.90;;;;;;4984372;28;20132;-71
2021/03/21 12:04:21;;;;;;;1999.90;999.90;;;10.00;99.80;;;;;;4983548;28;20046;-70
2021/03/21 12:06:50;;;;;;;1999.90;999.90;;;9.80;99.90;;;;;;5062428;28;20065;-71
2021/03/21 12:09:30;;;;;;;1999.90;999.90;;;9.70;99.90;;;;;;4998983;28;20048;-70
2021/03/21 12:12:01;;;;;;;1999.90;999.90;;;9.70;99.90;;;;;;4993957;28;20072;-71
2021/03/21 12:14:30;;;;;;;1999.90;999.90;;;9.60;99.90;;;;;;5001112;28;20053;-70
2021/03/21 12:17:24;;;;;;;1999.90;999.90;;;9.60;99.90;;;;;;4996290;28;20143;-70
2021/03/21 12:19:52;;;;;;;1999.90;999.90;;;9.50;99.90;;;;;;4997834;28;20058;-71
2021/03/21 12:22:37;;;;;;;1999.90;999.90;;;9.50;99.90;;;;;;5001319;28;20754;-70
2021/03/21 12:25:21;;;;;;;1999.90;999.90;;;9.50;99.90;;;;;;4999198;28;20486;-71
2021/03/21 12:27:49;;;;;;;1999.90;999.90;;;9.40;99.90;;;;;;4980298;28;20052;-71
2021/03/21 12:30:35;;;;;;;1999.90;999.90;;;9.40;99.90;;;;;;5089561;27;20446;-70
2021/03/21 12:33:27;;;;;;;1999.90;999.90;;;9.40;99.90;;;;;;4987694;28;20804;-70
2021/03/21 12:36:02;;;;;;;1999.90;999.90;;;9.30;99.90;;;;;;4992190;28;20072;-70
2021/03/21 12:38:53;;;;;;;1999.90;999.90;;;9.20;99.90;;;;;;5003703;28;20493;-70
2021/03/21 12:41:32;;;;;;;1999.90;999.90;;;9.20;99.70;;;;;;4998762;28;20054;-70
2021/03/21 12:44:22;;;;;;;1999.90;999.90;;;9.10;99.90;;;;;;4999495;28;20050;-70
2021/03/21 12:46:59;;;;;;;1999.90;999.90;;;9.00;99.60;;;;;;4982603;28;20042;-71
2021/03/21 12:49:35;;;;;;;1999.90;999.90;;;9.00;99.90;;;;;;4985647;28;20053;-70
2021/03/21 12:52:16;;;;;;;1999.90;999.90;;;9.00;99.90;;;;;;4988013;28;20046;-70
2021/03/21 12:54:45;;;;;;;1999.90;999.90;;;9.00;99.70;;;;;;5006215;28;20050;-71
2021/03/21 12:57:13;;;;;;;1999.90;999.90;;;9.10;99.90;;;;;;4998368;28;20042;-71
2021/03/21 12:59:42;;;;;;;1999.90;999.90;;;9.20;99.90;;;;;;4998319;28;20217;-70
2021/03/21 13:02:35;;;;;;;1999.90;999.90;;;9.30;99.90;;;;;;5000778;28;20892;-70
2021/03/21 13:05:07;;;;;;;1999.90;999.90;;;9.30;99.90;;;;;;4992097;28;20147;-70
2021/03/21 13:07:33;;;;;;;1999.90;999.90;;;9.40;99.90;;;;;;4993580;28;20132;-71
2021/03/21 13:09:59;;;;;;;1999.90;999.90;;;9.30;99.90;;;;;;5003202;28;20129;-70
2021/03/21 13:12:26;;;;;;;1999.90;999.90;;;9.30;99.80;;;;;;4996076;28;20459;-71
2021/03/21 13:14:53;;;;;;;1999.90;999.90;;;9.30;99.90;;;;;;5020068;28;20060;-70
2021/03/21 13:17:20;;;;;;;1999.90;999.90;;;9.30;99.90;;;;;;4997714;28;20416;-71
2021/03/21 13:19:46;;;;;;;1999.90;999.90;;;9.30;99.90;;;;;;5004769;28;20434;-70
2021/03/21 13:22:13;;;;;;;1999.90;999.90;;;9.40;99.90;;;;;;4996498;28;20047;-70
2021/03/21 13:24:39;;;;;;;1999.90;999.90;;;9.40;99.90;;;;;;4986517;28;20212;-70
2021/03/21 13:27:06;;;;;;;1999.90;999.90;;;9.40;99.90;;;;;;5008350;28;20136;-70
2021/03/21 13:29:32;;;;;;;1999.90;999.90;;;9.50;99.90;;;;;;5003931;28;20046;-70